createdAt,value
2023-02-18T00:02:23.530Z,101057.94
2023-02-18T00:04:48.498Z,101056.50
2023-02-18T00:07:12.163Z,101066.44
2023-02-18T00:09:35.760Z,101057.66
2023-02-18T00:11:59.425Z,101044.53
2023-02-18T00:14:23.063Z,101052.69
2023-02-18T00:16:47.511Z,101053.53
2023-02-18T00:19:14.739Z,101056.16
2023-02-18T00:21:40.995Z,101061.28
2023-02-18T00:24:05.477Z,101065.22
2023-02-18T00:26:29.446Z,101057.13
2023-02-18T00:28:54.421Z,101061.59
2023-02-18T00:31:23.898Z,101057.13
2023-02-18T00:33:47.657Z,101060.34
2023-02-18T00:36:15.276Z,101054.06
2023-02-18T00:38:40.583Z,101058.41
2023-02-18T00:41:04.921Z,101060.94
2023-02-18T00:43:29.313Z,101072.00
2023-02-18T00:45:53.443Z,101067.59
2023-02-18T00:48:17.040Z,101071.13
2023-02-18T00:50:40.692Z,101077.13
2023-02-18T00:53:04.331Z,101082.06
2023-02-18T00:55:29.345Z,101086.09
2023-02-18T00:57:52.957Z,101084.34
2023-02-18T01:00:17.720Z,101088.06
2023-02-18T01:02:41.428Z,101081.31
2023-02-18T01:05:05.267Z,101084.44
2023-02-18T01:07:28.974Z,101086.63
2023-02-18T01:09:52.686Z,101080.91
2023-02-18T01:12:18.248Z,101072.06
2023-02-18T01:14:42.057Z,101069.44
2023-02-18T01:17:05.702Z,101081.03
2023-02-18T01:19:29.322Z,101075.16
2023-02-18T01:21:52.925Z,101078.22
2023-02-18T01:24:16.550Z,101084.50
2023-02-18T01:26:40.237Z,101088.13
2023-02-18T01:29:06.364Z,101085.00
2023-02-18T01:31:30.115Z,101095.75
2023-02-18T01:33:55.830Z,101087.84
2023-02-18T01:36:19.497Z,101085.28
2023-02-18T01:38:43.502Z,101087.47
2023-02-18T01:41:08.065Z,101085.56
2023-02-18T01:43:32.004Z,101079.28
2023-02-18T01:46:20.272Z,101087.00
2023-02-18T01:48:49.314Z,101077.56
2023-02-18T01:51:18.922Z,101087.00
2023-02-18T01:53:52.911Z,101081.66
2023-02-18T01:56:24.533Z,101080.22
2023-02-18T01:58:49.232Z,101075.75
2023-02-18T02:01:13.227Z,101068.56
2023-02-18T02:03:39.406Z,101060.09
2023-02-18T02:06:03.069Z,101059.38
2023-02-18T02:08:26.876Z,101078.31
2023-02-18T02:11:09.670Z,101077.72
2023-02-18T02:13:53.745Z,101073.81
2023-02-18T02:16:27.757Z,101080.88
2023-02-18T02:19:11.295Z,101084.03
2023-02-18T02:22:10.226Z,101078.38
2023-02-18T02:25:13.512Z,101086.38
2023-02-18T02:28:07.854Z,101088.72
2023-02-18T02:31:20.334Z,101095.94
2023-02-18T02:34:29.081Z,101086.75
2023-02-18T02:37:00.492Z,101093.81
2023-02-18T02:39:36.641Z,101097.38
2023-02-18T02:42:11.462Z,101093.81
2023-02-18T02:44:47.387Z,101099.31
2023-02-18T02:47:20.772Z,101095.47
2023-02-18T02:49:55.036Z,101105.41
2023-02-18T02:52:25.342Z,101100.63
2023-02-18T02:54:49.424Z,101100.78
2023-02-18T02:57:47.991Z,101102.97
2023-02-18T03:00:20.911Z,101110.94
2023-02-18T03:03:07.293Z,101097.81
2023-02-18T03:05:49.485Z,101103.72
2023-02-18T03:08:40.491Z,101100.47
2023-02-18T03:11:08.011Z,101100.84
2023-02-18T03:13:57.086Z,101102.09
2023-02-18T03:16:34.702Z,101089.63
2023-02-18T03:19:07.295Z,101094.63
2023-02-18T03:21:37.424Z,101104.28
2023-02-18T03:24:08.998Z,101103.66
2023-02-18T03:26:35.912Z,101107.22
2023-02-18T03:29:04.685Z,101107.66
2023-02-18T03:31:31.675Z,101100.16
2023-02-18T03:34:00.843Z,101087.59
2023-02-18T03:36:26.124Z,101091.53
2023-02-18T03:38:58.314Z,101089.44
2023-02-18T03:41:22.364Z,101087.13
2023-02-18T03:43:52.083Z,101092.38
2023-02-18T03:46:16.094Z,101083.38
2023-02-18T03:48:40.882Z,101072.44
2023-02-18T03:51:04.583Z,101082.56
2023-02-18T03:53:28.157Z,101083.28
2023-02-18T03:55:53.250Z,101081.22
2023-02-18T03:58:16.881Z,101080.66
2023-02-18T04:00:40.541Z,101079.38
2023-02-18T04:03:04.287Z,101086.25
2023-02-18T04:05:28.684Z,101083.09
2023-02-18T04:07:52.292Z,101087.50
2023-02-18T04:10:15.984Z,101087.81
2023-02-18T04:12:40.998Z,101077.09
2023-02-18T04:15:04.970Z,101084.88
2023-02-18T04:17:28.587Z,101089.78
2023-02-18T04:19:52.279Z,101092.59
2023-02-18T04:22:15.928Z,101086.72
2023-02-18T04:24:39.613Z,101092.06
2023-02-18T04:27:03.282Z,101098.91
2023-02-18T04:29:28.553Z,101105.50
2023-02-18T04:31:52.136Z,101100.53
2023-02-18T04:34:16.018Z,101111.59
2023-02-18T04:36:39.640Z,101118.25
2023-02-18T04:39:03.323Z,101115.69
2023-02-18T04:41:27.044Z,101112.09
2023-02-18T04:43:50.702Z,101116.97
2023-02-18T04:46:15.819Z,101107.06
2023-02-18T04:48:39.535Z,101111.47
2023-02-18T04:51:03.320Z,101108.75
2023-02-18T04:53:27.031Z,101114.19
2023-02-18T04:55:51.992Z,101111.97
2023-02-18T04:58:15.706Z,101118.78
2023-02-18T05:00:39.301Z,101118.09
2023-02-18T05:03:04.565Z,101119.03
2023-02-18T05:05:28.229Z,101119.19
2023-02-18T05:07:51.866Z,101109.22
2023-02-18T05:10:19.106Z,101111.69
2023-02-18T05:12:42.813Z,101114.28
2023-02-18T05:15:07.846Z,101107.47
2023-02-18T05:17:31.498Z,101116.19
2023-02-18T05:19:56.466Z,101118.41
2023-02-18T05:22:20.259Z,101108.94
2023-02-18T05:24:43.817Z,101106.44
2023-02-18T05:27:07.442Z,101099.56
2023-02-18T05:29:31.035Z,101093.94
2023-02-18T05:31:54.785Z,101102.50
2023-02-18T05:34:18.415Z,101091.00
2023-02-18T05:36:43.508Z,101091.22
2023-02-18T05:39:07.078Z,101093.72
2023-02-18T05:41:30.794Z,101091.00
2023-02-18T05:44:11.713Z,101090.84
2023-02-18T05:46:35.704Z,101087.06
2023-02-18T05:48:59.382Z,101077.63
2023-02-18T05:51:23.058Z,101086.34
2023-02-18T05:53:48.055Z,101086.03
2023-02-18T05:56:11.785Z,101100.91
2023-02-18T05:58:35.518Z,101099.09
2023-02-18T06:00:59.172Z,101097.88
2023-02-18T06:03:22.868Z,101104.19
2023-02-18T06:05:47.973Z,101095.25
2023-02-18T06:08:11.631Z,101106.22
2023-02-18T06:10:36.685Z,101092.56
2023-02-18T06:13:02.400Z,101091.75
2023-02-18T06:15:26.023Z,101081.44
2023-02-18T06:17:49.606Z,101095.47
2023-02-18T06:20:14.282Z,101095.53
2023-02-18T06:22:37.858Z,101090.59
2023-02-18T06:25:01.577Z,101088.03
2023-02-18T06:27:26.590Z,101095.38
2023-02-18T06:29:50.241Z,101088.03
2023-02-18T06:32:13.969Z,101095.66
2023-02-18T06:34:37.735Z,101094.53
2023-02-18T06:37:01.514Z,101087.25
2023-02-18T06:39:25.214Z,101097.28
2023-02-18T06:41:48.778Z,101083.47
2023-02-18T06:44:15.375Z,101086.22
2023-02-18T06:46:39.445Z,101086.13
2023-02-18T06:49:03.116Z,101088.59
2023-02-18T06:51:26.950Z,101087.63
2023-02-18T06:53:50.641Z,101096.44
2023-02-18T06:56:14.431Z,101088.59
2023-02-18T06:58:38.109Z,101095.75
2023-02-18T07:01:03.257Z,101097.00
2023-02-18T07:03:27.095Z,101094.50
2023-02-18T07:05:50.936Z,101090.13
2023-02-18T07:08:14.864Z,101086.97
2023-02-18T07:10:38.607Z,101074.16
2023-02-18T07:13:02.345Z,101080.19
2023-02-18T07:15:27.877Z,101082.75
2023-02-18T07:17:53.186Z,101075.38
2023-02-18T07:20:16.757Z,101074.06
2023-02-18T07:22:40.422Z,101059.91
2023-02-18T07:25:04.553Z,101061.09
2023-02-18T07:27:28.276Z,101066.84
2023-02-18T07:29:51.983Z,101066.31
2023-02-18T07:32:17.070Z,101056.03
2023-02-18T07:34:42.366Z,101054.94
2023-02-18T07:37:09.288Z,101065.16
2023-02-18T07:39:32.916Z,101055.56
2023-02-18T07:41:56.983Z,101051.69
2023-02-18T07:44:20.921Z,101034.16
2023-02-18T07:46:46.677Z,101036.59
2023-02-18T07:49:11.483Z,101041.88
2023-02-18T07:51:38.737Z,101034.94
2023-02-18T07:54:02.892Z,101026.47
2023-02-18T07:56:27.584Z,101025.13
2023-02-18T07:58:52.161Z,101030.59
2023-02-18T08:01:17.960Z,101025.28
2023-02-18T08:03:41.795Z,101024.53
2023-02-18T08:06:07.601Z,101015.38
2023-02-18T08:08:36.702Z,101002.06
2023-02-18T08:11:13.265Z,101004.72
2023-02-18T08:13:40.675Z,101003.44
2023-02-18T08:16:04.377Z,101004.91
2023-02-18T08:18:28.720Z,100998.34
2023-02-18T08:20:52.894Z,100993.38
2023-02-18T08:23:17.642Z,100995.81
2023-02-18T08:25:43.335Z,100991.78
2023-02-18T08:28:07.108Z,100980.47
2023-02-18T08:30:30.832Z,100983.03
2023-02-18T08:32:54.762Z,100980.44
2023-02-18T08:35:18.714Z,100978.75
2023-02-18T08:37:53.833Z,100980.66
2023-02-18T08:40:18.779Z,100972.97
2023-02-18T08:42:43.768Z,100975.84
2023-02-18T08:45:09.278Z,100974.84
2023-02-18T08:48:17.647Z,100971.44
2023-02-18T08:50:16.877Z,100966.16
2023-02-18T08:52:41.803Z,100967.34
2023-02-18T08:55:06.740Z,100965.53
2023-02-18T08:57:30.599Z,100957.94
2023-02-18T08:59:55.655Z,100965.88
2023-02-18T09:02:19.314Z,100955.94
2023-02-18T09:04:43.194Z,100959.41
2023-02-18T09:07:07.188Z,100958.00
2023-02-18T09:09:30.948Z,100955.72
2023-02-18T09:11:54.508Z,100942.81
2023-02-18T09:14:18.186Z,100936.31
2023-02-18T09:16:44.138Z,100935.16
2023-02-18T09:19:08.169Z,100929.38
2023-02-18T09:21:31.959Z,100929.25
2023-02-18T09:23:55.722Z,100936.28
2023-02-18T09:26:23.128Z,100931.50
2023-02-18T09:28:46.975Z,100929.25
2023-02-18T09:31:14.300Z,100922.53
2023-02-18T09:33:41.311Z,100926.53
2023-02-18T09:36:05.991Z,100919.66
2023-02-18T09:38:29.704Z,100906.50
2023-02-18T09:40:56.172Z,100898.72
2023-02-18T09:43:30.937Z,100878.63
2023-02-18T09:45:55.698Z,100882.75
2023-02-18T09:48:19.360Z,100870.94
2023-02-18T09:50:49.485Z,100864.53
2023-02-18T09:53:14.565Z,100856.16
2023-02-18T09:55:41.219Z,100852.19
2023-02-18T09:58:08.096Z,100851.22
2023-02-18T10:00:36.617Z,100827.66
2023-02-18T10:03:05.923Z,100831.91
2023-02-18T10:05:32.126Z,100826.41
2023-02-18T10:08:02.517Z,100829.06
2023-02-18T10:10:38.023Z,100834.53
2023-02-18T10:13:03.238Z,100831.31
2023-02-18T10:15:31.217Z,100827.59
2023-02-18T10:17:57.817Z,100817.53
2023-02-18T10:20:29.689Z,100814.97
2023-02-18T10:22:57.400Z,100800.72
2023-02-18T10:25:24.685Z,100784.78
2023-02-18T10:27:50.814Z,100773.19
2023-02-18T10:30:28.391Z,100759.63
2023-02-18T10:32:57.410Z,100747.19
2023-02-18T10:35:28.931Z,100746.59
2023-02-18T10:38:07.990Z,100733.44
2023-02-18T10:40:47.908Z,100718.69
2023-02-18T10:43:23.183Z,100706.63
2023-02-18T10:45:55.144Z,100704.66
2023-02-18T10:48:45.580Z,100695.81
2023-02-18T10:51:18.001Z,100690.78
2023-02-18T10:53:45.331Z,100678.97
2023-02-18T10:56:10.410Z,100690.41
2023-02-18T10:58:36.443Z,100682.44
2023-02-18T11:01:04.808Z,100657.47
2023-02-18T11:03:41.137Z,100656.41
2023-02-18T11:06:05.510Z,100642.69
2023-02-18T11:08:39.272Z,100629.78
2023-02-18T11:11:16.488Z,100627.84
2023-02-18T11:13:43.025Z,100613.78
2023-02-18T11:16:09.500Z,100602.91
2023-02-18T11:18:40.392Z,100594.88
2023-02-18T11:21:07.784Z,100595.28
2023-02-18T11:23:33.480Z,100584.75
2023-02-18T11:26:04.317Z,100595.16
2023-02-18T11:28:40.927Z,100576.19
2023-02-18T11:31:06.319Z,100566.50
2023-02-18T11:33:36.572Z,100563.38
2023-02-18T11:36:06.651Z,100570.34
2023-02-18T11:38:46.474Z,100553.13
2023-02-18T11:41:14.957Z,100557.06
2023-02-18T11:43:42.890Z,100538.19
2023-02-18T11:46:16.225Z,100530.00
2023-02-18T11:48:41.261Z,100526.25
2023-02-18T11:51:07.380Z,100509.63
2023-02-18T11:53:34.646Z,100520.41
2023-02-18T11:56:00.512Z,100519.41
2023-02-18T11:58:26.164Z,100503.72
2023-02-18T12:00:52.680Z,100478.13
2023-02-18T12:03:34.732Z,100459.00
2023-02-18T12:06:03.047Z,100460.31
2023-02-18T12:08:31.729Z,100477.41
2023-02-18T12:11:01.928Z,100466.28
2023-02-18T12:13:32.448Z,100462.59
2023-02-18T12:16:09.671Z,100451.06
2023-02-18T12:19:09.686Z,100443.88
2023-02-18T12:21:49.067Z,100434.25
2023-02-18T12:24:35.033Z,100442.09
2023-02-18T12:27:12.246Z,100440.75
2023-02-18T12:29:57.109Z,100424.53
2023-02-18T12:32:33.238Z,100422.28
2023-02-18T12:35:29.891Z,100418.34
2023-02-18T12:38:18.991Z,100404.97
2023-02-18T12:41:17.264Z,100399.34
2023-02-18T12:43:54.154Z,100396.63
2023-02-18T12:46:47.676Z,100379.47
2023-02-18T12:49:28.718Z,100376.63
2023-02-18T12:52:06.942Z,100377.31
2023-02-18T12:54:48.402Z,100377.78
2023-02-18T12:57:36.089Z,100367.28
2023-02-18T13:00:42.389Z,100363.41
2023-02-18T13:04:02.089Z,100360.50
2023-02-18T13:07:04.829Z,100351.09
2023-02-18T13:09:42.128Z,100364.06
2023-02-18T13:12:12.473Z,100333.75
2023-02-18T13:14:47.892Z,100345.56
2023-02-18T13:17:13.542Z,100352.84
2023-02-18T13:19:53.741Z,100347.47
2023-02-18T13:22:20.291Z,100349.53
2023-02-18T13:24:47.315Z,100346.69
2023-02-18T13:27:35.140Z,100329.31
2023-02-18T13:30:18.392Z,100343.50
2023-02-18T13:32:54.109Z,100318.47
2023-02-18T13:35:26.923Z,100326.00
2023-02-18T13:38:20.365Z,100316.25
2023-02-18T13:40:45.125Z,100325.16
2023-02-18T13:43:31.438Z,100317.97
2023-02-18T13:46:10.627Z,100315.13
2023-02-18T13:48:43.417Z,100305.97
2023-02-18T13:51:08.972Z,100314.84
2023-02-18T13:53:36.690Z,100312.16
2023-02-18T13:56:05.782Z,100325.88
2023-02-18T13:58:38.161Z,100318.09
2023-02-18T14:01:06.905Z,100314.03
2023-02-18T14:03:51.316Z,100322.75
2023-02-18T14:06:25.471Z,100296.03
2023-02-18T14:08:50.232Z,100313.72
2023-02-18T14:11:43.836Z,100310.06
2023-02-18T14:14:35.980Z,100324.94
2023-02-18T14:17:37.185Z,100318.00
2023-02-18T14:20:48.196Z,100332.28
2023-02-18T14:24:00.401Z,100321.38
2023-02-18T14:26:35.399Z,100332.00
2023-02-18T14:29:06.946Z,100321.38
2023-02-18T14:31:43.554Z,100324.78
2023-02-18T14:34:39.396Z,100321.09
2023-02-18T14:37:34.707Z,100323.25
2023-02-18T14:40:21.988Z,100332.44
2023-02-18T14:42:56.571Z,100331.72
2023-02-18T14:45:34.678Z,100323.78
2023-02-18T14:48:27.213Z,100336.38
2023-02-18T14:50:53.014Z,100336.25
2023-02-18T14:53:21.758Z,100340.09
2023-02-18T14:55:50.271Z,100341.47
2023-02-18T14:58:29.726Z,100349.81
2023-02-18T15:00:53.447Z,100344.31
2023-02-18T15:03:20.390Z,100347.84
2023-02-18T15:05:45.247Z,100346.88
2023-02-18T15:08:16.451Z,100341.91
2023-02-18T15:10:44.744Z,100347.41
2023-02-18T15:13:19.407Z,100351.25
2023-02-18T15:15:46.582Z,100367.94
2023-02-18T15:18:23.357Z,100368.63
2023-02-18T15:20:47.122Z,100372.59
2023-02-18T15:23:17.333Z,100394.25
2023-02-18T15:25:41.093Z,100403.06
2023-02-18T15:28:04.795Z,100400.38
2023-02-18T15:30:32.432Z,100398.00
2023-02-18T15:32:58.045Z,100419.28
2023-02-18T15:35:25.001Z,100422.59
2023-02-18T15:37:56.437Z,100434.13
2023-02-18T15:40:20.613Z,100439.66
2023-02-18T15:42:44.354Z,100456.22
2023-02-18T15:45:20.606Z,100453.69
2023-02-18T15:47:48.130Z,100445.75
2023-02-18T15:50:19.754Z,100434.28
2023-02-18T15:52:43.414Z,100447.03
2023-02-18T15:55:16.742Z,100445.44
2023-02-18T15:57:41.476Z,100462.22
2023-02-18T16:00:14.979Z,100467.59
2023-02-18T16:02:38.658Z,100476.34
2023-02-18T16:05:05.516Z,100471.59
2023-02-18T16:07:32.201Z,100478.03
2023-02-18T16:10:22.820Z,100501.53
2023-02-18T16:12:51.286Z,100496.22
2023-02-18T16:15:20.636Z,100509.88
2023-02-18T16:17:46.233Z,100527.34
2023-02-18T16:20:27.252Z,100527.56
2023-02-18T16:22:54.633Z,100518.31
2023-02-18T16:25:22.879Z,100541.28
2023-02-18T16:27:54.037Z,100534.91
2023-02-18T16:30:20.635Z,100555.56
2023-02-18T16:32:44.784Z,100565.53
2023-02-18T16:35:09.415Z,100571.81
2023-02-18T16:37:40.079Z,100574.75
2023-02-18T16:40:05.665Z,100589.63
2023-02-18T16:42:29.415Z,100585.69
2023-02-18T16:44:53.055Z,100596.69
2023-02-18T16:47:18.363Z,100610.31
2023-02-18T16:49:44.366Z,100608.63
2023-02-18T16:52:10.814Z,100612.69
2023-02-18T16:54:35.914Z,100622.16
2023-02-18T16:56:59.495Z,100631.63
2023-02-18T16:59:23.138Z,100633.16
2023-02-18T17:01:47.410Z,100645.19
2023-02-18T17:04:14.562Z,100655.34
2023-02-18T17:06:38.468Z,100664.84
2023-02-18T17:09:02.089Z,100678.16
2023-02-18T17:11:30.963Z,100681.84
2023-02-18T17:13:58.170Z,100692.19
2023-02-18T17:16:22.915Z,100702.28
2023-02-18T17:18:47.544Z,100711.13
2023-02-18T17:21:15.019Z,100716.19
2023-02-18T17:23:38.642Z,100727.31
2023-02-18T17:26:02.253Z,100722.88
2023-02-18T17:28:27.315Z,100730.66
2023-02-18T17:30:57.416Z,100739.34
2023-02-18T17:33:21.374Z,100745.31
2023-02-18T17:35:45.463Z,100744.75
2023-02-18T17:38:12.756Z,100752.72
2023-02-18T17:40:36.394Z,100753.69
2023-02-18T17:43:00.118Z,100765.72
2023-02-18T17:45:32.132Z,100768.16
2023-02-18T17:47:56.885Z,100765.88
2023-02-18T17:50:21.158Z,100772.41
2023-02-18T17:52:45.010Z,100782.59
2023-02-18T17:55:20.181Z,100777.75
2023-02-18T17:57:44.961Z,100785.13
2023-02-18T18:00:10.630Z,100786.91
2023-02-18T18:02:38.470Z,100788.03
2023-02-18T18:05:02.288Z,100800.69
2023-02-18T18:07:25.894Z,100806.69
2023-02-18T18:09:49.666Z,100802.69
2023-02-18T18:12:16.584Z,100802.47
2023-02-18T18:14:40.155Z,100818.41
2023-02-18T18:17:03.832Z,100827.22
2023-02-18T18:19:30.352Z,100824.16
2023-02-18T18:21:54.019Z,100833.22
2023-02-18T18:24:17.642Z,100837.09
2023-02-18T18:26:41.862Z,100842.75
2023-02-18T18:29:05.433Z,100849.97
2023-02-18T18:31:29.362Z,100845.91
2023-02-18T18:33:53.860Z,100854.66
2023-02-18T18:36:20.764Z,100852.53
2023-02-18T18:38:44.517Z,100859.56
2023-02-18T18:41:11.593Z,100862.69
2023-02-18T18:43:37.370Z,100860.47
2023-02-18T18:46:01.752Z,100863.75
2023-02-18T18:48:26.191Z,100863.63
2023-02-18T18:50:50.572Z,100869.44
2023-02-18T18:53:20.272Z,100891.59
2023-02-18T18:55:44.549Z,100885.44
2023-02-18T18:58:08.479Z,100888.97
2023-02-18T19:00:35.184Z,100890.13
2023-02-18T19:03:00.188Z,100900.81
2023-02-18T19:05:28.894Z,100896.47
2023-02-18T19:07:53.331Z,100897.13
2023-02-18T19:10:19.494Z,100898.22
2023-02-18T19:12:43.097Z,100892.56
2023-02-18T19:15:07.393Z,100898.25
2023-02-18T19:17:30.990Z,100909.06
2023-02-18T19:19:55.088Z,100911.38
2023-02-18T19:22:18.699Z,100918.09
2023-02-18T19:24:42.949Z,100904.38
2023-02-18T19:27:10.279Z,100914.88
2023-02-18T19:29:33.954Z,100920.66
2023-02-18T19:31:57.553Z,100917.69
2023-02-18T19:34:21.642Z,100925.81
2023-02-18T19:36:46.761Z,100918.50
2023-02-18T19:39:10.498Z,100927.00
2023-02-18T19:41:34.214Z,100936.25
2023-02-18T19:43:59.361Z,100929.94
2023-02-18T19:46:23.070Z,100935.38
2023-02-18T19:48:51.042Z,100945.47
2023-02-18T19:51:14.873Z,100943.81
2023-02-18T19:53:38.805Z,100942.09
2023-02-18T19:56:06.390Z,100941.44
2023-02-18T19:58:30.925Z,100941.34
2023-02-18T20:00:56.220Z,100948.16
2023-02-18T20:03:19.958Z,100949.69
2023-02-18T20:05:43.604Z,100957.69
2023-02-18T20:08:07.278Z,100948.28
2023-02-18T20:10:31.007Z,100948.09
2023-02-18T20:12:55.276Z,100957.91
2023-02-18T20:15:19.144Z,100960.41
2023-02-18T20:17:44.311Z,100970.38
2023-02-18T20:20:08.548Z,100970.34
2023-02-18T20:22:32.336Z,100970.31
2023-02-18T20:24:55.931Z,100967.88
2023-02-18T20:27:19.956Z,100969.72
2023-02-18T20:29:43.584Z,100971.59
2023-02-18T20:32:08.207Z,100972.25
2023-02-18T20:34:34.093Z,100968.81
2023-02-18T20:36:58.176Z,100973.28
2023-02-18T20:39:22.677Z,100979.22
2023-02-18T20:41:47.906Z,100979.81
2023-02-18T20:44:11.965Z,100982.28
2023-02-18T20:46:37.370Z,100982.72
2023-02-18T20:49:01.076Z,100986.16
2023-02-18T20:51:26.604Z,100990.50
2023-02-18T20:53:51.382Z,100987.84
2023-02-18T20:56:16.028Z,100985.69
2023-02-18T20:58:40.009Z,100991.69
2023-02-18T21:01:06.116Z,100993.94
2023-02-18T21:03:30.504Z,100991.38
2023-02-18T21:05:58.159Z,100991.16
2023-02-18T21:08:23.307Z,100996.59
2023-02-18T21:10:47.066Z,100998.31
2023-02-18T21:13:10.646Z,101006.78
2023-02-18T21:15:34.283Z,100998.00
2023-02-18T21:17:57.826Z,101003.44
2023-02-18T21:20:21.600Z,100997.59
2023-02-18T21:22:45.198Z,101002.25
2023-02-18T21:25:10.569Z,101008.19
2023-02-18T21:27:34.173Z,101010.63
2023-02-18T21:30:00.912Z,101003.69
2023-02-18T21:32:24.598Z,101008.25
2023-02-18T21:34:48.365Z,101011.56
2023-02-18T21:37:12.072Z,101012.38
2023-02-18T21:39:35.783Z,101016.28
2023-02-18T21:42:04.082Z,101020.78
2023-02-18T21:44:41.241Z,101011.88
2023-02-18T21:47:06.054Z,101013.06
2023-02-18T21:49:29.649Z,101010.94
2023-02-18T21:52:00.692Z,101000.81
2023-02-18T21:54:27.475Z,101002.59
2023-02-18T21:56:52.153Z,101004.81
2023-02-18T21:59:17.698Z,101006.94
2023-02-18T22:01:41.423Z,101007.50
2023-02-18T22:04:05.695Z,101006.00
2023-02-18T22:06:29.295Z,101018.19
2023-02-18T22:08:52.933Z,101022.38
2023-02-18T22:11:16.554Z,101019.31
2023-02-18T22:13:40.230Z,101018.94
2023-02-18T22:16:05.657Z,101020.47
2023-02-18T22:18:32.686Z,101032.84
2023-02-18T22:20:56.251Z,101034.03
2023-02-18T22:23:19.931Z,101023.72
2023-02-18T22:25:43.598Z,101031.91
2023-02-18T22:28:07.574Z,101032.88
2023-02-18T22:30:31.288Z,101034.41
2023-02-18T22:32:56.346Z,101030.81
2023-02-18T22:35:20.068Z,101029.22
2023-02-18T22:37:43.708Z,101029.09
2023-02-18T22:40:07.906Z,101025.91
2023-02-18T22:42:31.600Z,101023.44
2023-02-18T22:44:57.133Z,101027.13
2023-02-18T22:47:20.841Z,101023.91
2023-02-18T22:49:45.854Z,101024.41
2023-02-18T22:52:09.567Z,101018.84
2023-02-18T22:54:33.146Z,101017.91
2023-02-18T22:56:56.783Z,101021.81
2023-02-18T22:59:20.759Z,101013.38
2023-02-18T23:01:49.791Z,101011.47
2023-02-18T23:04:15.956Z,101008.09
2023-02-18T23:06:43.994Z,101015.72
2023-02-18T23:09:09.321Z,101011.19
2023-02-18T23:11:33.072Z,101010.25
2023-02-18T23:14:15.105Z,101022.47
2023-02-18T23:16:53.621Z,101010.66
2023-02-18T23:19:17.256Z,101019.09
2023-02-18T23:21:42.218Z,101018.97
2023-02-18T23:24:06.856Z,101026.03
2023-02-18T23:26:30.388Z,101033.25
2023-02-18T23:28:55.372Z,101023.13
2023-02-18T23:31:21.210Z,101020.28
2023-02-18T23:33:45.319Z,101015.03
2023-02-18T23:36:14.586Z,101017.50
2023-02-18T23:38:39.679Z,101026.06
2023-02-18T23:41:03.334Z,101030.00
2023-02-18T23:43:27.024Z,101034.47
2023-02-18T23:45:50.636Z,101024.44
2023-02-18T23:48:14.283Z,101016.25
2023-02-18T23:50:37.854Z,101009.75
2023-02-18T23:53:01.540Z,101012.38
2023-02-18T23:55:26.611Z,101011.88
2023-02-18T23:57:50.267Z,101015.69
